Time;durP1;ratioP1;P1;durP2;ratioP2;P2;SDS_P1;SDS_P2;PMS_P1;PMS_P2;Temp;Humidity;BMP_temperature;BMP_pressure;BME280_temperature;BME280_humidity;BME280_pressure;Samples;Min_cycle;Max_cycle;Signal;HPM_P1;HPM_P2
2020/12/22 00:01:54;;;;;;;65.03;37.10;;;;;;;6.57;100.00;95374.84;4965994;28;20446;-75
2020/12/22 00:04:21;;;;;;;54.63;35.77;;;;;;;6.58;100.00;95376.50;4957698;28;20470;-75
2020/12/22 00:06:47;;;;;;;58.77;37.60;;;;;;;6.59;100.00;95383.22;4975076;28;20434;-75
2020/12/22 00:09:13;;;;;;;45.80;33.30;;;;;;;6.49;100.00;95386.53;4962755;28;20881;-74
2020/12/22 00:11:41;;;;;;;40.57;31.77;;;;;;;6.26;100.00;95391.72;4955758;29;20477;-75
2020/12/22 00:14:08;;;;;;;59.07;36.33;;;;;;;6.24;100.00;95380.81;4963273;28;20478;-75
2020/12/22 00:16:36;;;;;;;44.27;30.70;;;;;;;6.35;100.00;95385.06;4959717;28;20451;-74
2020/12/22 00:19:02;;;;;;;51.83;33.40;;;;;;;6.36;100.00;95388.44;4955730;29;20438;-74
2020/12/22 00:21:33;;;;;;;41.50;30.53;;;;;;;6.16;100.00;95385.72;4955799;29;20514;-76
2020/12/22 00:23:59;;;;;;;44.53;32.80;;;;;;;5.93;100.00;95388.28;4955386;29;20446;-75
2020/12/22 00:26:26;;;;;;;38.07;30.67;;;;;;;6.09;100.00;95375.16;4955239;29;20473;-74
2020/12/22 00:28:53;;;;;;;35.13;29.37;;;;;;;5.94;100.00;95375.38;4955824;29;20442;-74
2020/12/22 00:31:20;;;;;;;42.10;31.00;;;;;;;6.08;100.00;95376.06;4956352;28;20490;-74
2020/12/22 00:33:47;;;;;;;43.43;29.23;;;;;;;5.98;100.00;95380.25;4957712;28;20447;-74
2020/12/22 00:36:13;;;;;;;42.37;31.10;;;;;;;6.02;100.00;95374.78;4974987;28;20453;-74
2020/12/22 00:38:40;;;;;;;47.20;30.03;;;;;;;5.96;100.00;95365.03;4974736;28;20449;-75
2020/12/22 00:41:11;;;;;;;34.40;30.67;;;;;;;5.93;100.00;95362.72;4972945;28;20945;-74
2020/12/22 00:43:38;;;;;;;40.63;30.33;;;;;;;6.11;100.00;95362.25;4960972;28;20525;-75
2020/12/22 00:46:05;;;;;;;38.33;28.43;;;;;;;6.22;100.00;95359.66;4962983;28;20486;-75
2020/12/22 00:48:32;;;;;;;39.57;29.60;;;;;;;6.30;100.00;95362.41;4954663;29;20446;-74
2020/12/22 00:50:58;;;;;;;34.73;29.27;;;;;;;6.31;100.00;95365.78;4971427;28;20957;-74
2020/12/22 00:53:25;;;;;;;36.13;29.30;;;;;;;6.11;100.00;95373.28;4958119;28;20452;-75
2020/12/22 00:55:52;;;;;;;33.90;29.73;;;;;;;6.09;100.00;95374.34;4963659;28;20452;-75
2020/12/22 00:58:18;;;;;;;36.87;29.33;;;;;;;5.79;100.00;95371.44;4956477;28;20976;-75
2020/12/22 01:00:45;;;;;;;44.10;29.33;;;;;;;5.80;100.00;95366.22;4955873;28;20826;-74
2020/12/22 01:03:12;;;;;;;35.03;28.97;;;;;;;5.93;100.00;95365.28;4971662;28;20456;-74
2020/12/22 01:05:39;;;;;;;31.47;27.50;;;;;;;5.89;100.00;95358.78;4966836;28;20472;-74
2020/12/22 01:08:05;;;;;;;36.57;30.27;;;;;;;5.86;100.00;95356.44;4954591;29;20454;-75
2020/12/22 01:10:32;;;;;;;37.60;29.23;;;;;;;5.87;100.00;95353.78;4954870;29;20504;-75
2020/12/22 01:12:58;;;;;;;29.90;26.57;;;;;;;5.80;100.00;95356.00;4958281;28;20453;-74
2020/12/22 01:15:25;;;;;;;32.33;27.93;;;;;;;5.79;100.00;95351.00;4969148;28;20474;-74
2020/12/22 01:17:51;;;;;;;34.20;27.10;;;;;;;5.67;100.00;95345.09;4954362;29;20442;-74
2020/12/22 01:20:19;;;;;;;29.80;26.70;;;;;;;5.59;100.00;95354.19;4954403;29;20505;-74
2020/12/22 01:22:46;;;;;;;34.90;28.10;;;;;;;5.52;100.00;95334.31;4953804;28;20827;-74
2020/12/22 01:25:13;;;;;;;29.20;26.20;;;;;;;5.59;100.00;95341.41;4954280;29;20466;-74
2020/12/22 01:27:39;;;;;;;28.00;25.10;;;;;;;5.55;100.00;95337.47;4954589;29;20460;-74
2020/12/22 01:30:05;;;;;;;28.63;25.83;;;;;;;5.54;100.00;95335.00;4972718;28;20453;-74
2020/12/22 01:32:32;;;;;;;33.57;27.00;;;;;;;5.52;100.00;95340.25;4966798;28;20445;-74
2020/12/22 01:34:58;;;;;;;29.80;26.67;;;;;;;5.44;100.00;95329.81;4973393;28;20805;-75
2020/12/22 01:37:26;;;;;;;29.13;26.03;;;;;;;5.55;100.00;95334.91;4973427;28;20433;-74
2020/12/22 01:39:52;;;;;;;28.43;25.70;;;;;;;5.56;100.00;95331.41;4973421;28;20449;-74
2020/12/22 01:42:19;;;;;;;30.70;26.10;;;;;;;5.47;100.00;95334.66;4973534;28;20471;-74
2020/12/22 01:44:45;;;;;;;30.00;26.03;;;;;;;5.42;100.00;95329.91;4969682;28;20488;-74
2020/12/22 01:47:13;;;;;;;31.60;26.27;;;;;;;5.37;100.00;95309.03;4954621;28;20442;-74
2020/12/22 01:49:40;;;;;;;29.73;26.70;;;;;;;5.51;100.00;95323.28;4964798;28;20441;-74
2020/12/22 01:52:06;;;;;;;29.47;26.87;;;;;;;5.56;100.00;95328.03;4973253;28;20437;-74
2020/12/22 01:54:34;;;;;;;29.13;26.23;;;;;;;5.30;100.00;95260.16;4973519;28;20816;-74
2020/12/22 01:57:10;;;;;;;33.23;26.43;;;;;;;5.46;100.00;95335.59;4973311;28;20433;-74
2020/12/22 01:59:36;;;;;;;31.23;27.77;;;;;;;5.64;100.00;95332.56;4973396;28;20504;-73
2020/12/22 02:02:03;;;;;;;29.80;26.73;;;;;;;5.67;100.00;95325.47;4973144;28;20440;-73
2020/12/22 02:04:30;;;;;;;27.90;25.10;;;;;;;5.78;100.00;95334.84;4973062;28;20505;-73
2020/12/22 02:06:58;;;;;;;30.90;27.70;;;;;;;5.72;100.00;95320.00;4955596;28;20512;-73
2020/12/22 02:09:26;;;;;;;35.60;27.17;;;;;;;5.64;100.00;95332.56;4953829;29;20466;-73
2020/12/22 02:11:54;;;;;;;30.50;26.00;;;;;;;5.77;100.00;95328.13;4954384;29;20450;-74
2020/12/22 02:14:20;;;;;;;30.03;26.73;;;;;;;5.76;100.00;95335.91;4954525;28;20859;-74
2020/12/22 02:16:47;;;;;;;30.00;26.20;;;;;;;5.80;100.00;95335.53;4953867;29;20474;-74
2020/12/22 02:19:13;;;;;;;30.83;26.90;;;;;;;5.89;100.00;95335.78;4953864;29;20442;-74
2020/12/22 02:21:41;;;;;;;30.80;27.57;;;;;;;6.02;100.00;95338.19;4966886;28;20457;-75
2020/12/22 02:24:07;;;;;;;30.23;27.33;;;;;;;5.84;100.00;95342.06;4973139;28;20446;-76
2020/12/22 02:26:34;;;;;;;29.47;26.73;;;;;;;5.81;100.00;95332.06;4969412;28;20434;-75
2020/12/22 02:29:00;;;;;;;29.87;26.53;;;;;;;5.79;100.00;95341.59;4953604;29;20457;-75
2020/12/22 02:31:27;;;;;;;30.13;25.17;;;;;;;5.80;100.00;95343.22;4953850;29;20524;-75
2020/12/22 02:33:54;;;;;;;26.60;23.70;;;;;;;5.64;100.00;95348.72;4956041;28;20448;-75
2020/12/22 02:36:20;;;;;;;26.77;24.17;;;;;;;5.86;100.00;95336.00;4957433;29;20446;-75
2020/12/22 02:38:48;;;;;;;28.10;25.20;;;;;;;5.99;100.00;95331.56;4961513;28;20446;-75
2020/12/22 02:41:15;;;;;;;27.87;25.17;;;;;;;5.98;100.00;95341.91;4976855;28;20445;-75
2020/12/22 02:43:42;;;;;;;31.30;26.10;;;;;;;6.09;100.00;95338.53;4976453;28;20453;-75
2020/12/22 02:46:08;;;;;;;29.17;26.17;;;;;;;5.91;100.00;95351.81;4976676;28;20491;-76
2020/12/22 02:48:35;;;;;;;28.20;25.40;;;;;;;5.94;100.00;95346.44;4976395;28;20460;-75
2020/12/22 02:51:02;;;;;;;32.97;27.67;;;;;;;5.75;100.00;95353.00;4976399;28;20429;-75
2020/12/22 02:53:28;;;;;;;30.63;26.70;;;;;;;5.99;100.00;95343.53;4976265;28;20437;-75
2020/12/22 02:55:55;;;;;;;28.30;25.50;;;;;;;6.00;100.00;95334.94;4976643;28;20496;-75
2020/12/22 02:58:22;;;;;;;28.30;25.40;;;;;;;6.11;100.00;95345.16;4975651;28;20436;-73
2020/12/22 03:00:49;;;;;;;28.93;25.60;;;;;;;6.03;100.00;95344.91;4957648;28;20837;-73
2020/12/22 03:03:15;;;;;;;29.00;25.20;;;;;;;6.02;100.00;95333.06;4968875;28;20446;-72
2020/12/22 03:05:42;;;;;;;29.40;26.27;;;;;;;6.12;100.00;95345.94;4976117;28;20980;-73
2020/12/22 03:08:09;;;;;;;30.60;27.47;;;;;;;6.15;100.00;95341.41;4958463;28;20516;-73
2020/12/22 03:10:35;;;;;;;28.27;25.30;;;;;;;6.16;100.00;95339.69;4969537;28;20441;-73
2020/12/22 03:13:02;;;;;;;28.37;25.40;;;;;;;6.17;100.00;95337.00;4976193;28;20445;-73
2020/12/22 03:15:29;;;;;;;27.93;25.23;;;;;;;6.20;100.00;95341.06;4969949;28;20469;-73
2020/12/22 03:17:55;;;;;;;29.77;27.00;;;;;;;6.20;100.00;95342.78;4958037;28;20449;-73
2020/12/22 03:20:24;;;;;;;37.57;28.03;;;;;;;6.13;100.00;95333.06;4974318;28;20874;-73
2020/12/22 03:22:50;;;;;;;32.27;28.90;;;;;;;6.22;100.00;95336.63;4965303;28;20461;-73
2020/12/22 03:25:17;;;;;;;34.03;27.40;;;;;;;6.18;100.00;95327.59;4973219;28;20472;-73
2020/12/22 03:27:43;;;;;;;32.17;28.10;;;;;;;6.15;100.00;95325.25;4975883;28;20889;-73
2020/12/22 03:30:12;;;;;;;29.73;26.50;;;;;;;6.24;100.00;95339.06;4975671;28;20441;-73
2020/12/22 03:32:40;;;;;;;33.80;25.87;;;;;;;6.26;100.00;95343.13;4969224;28;20985;-73
2020/12/22 03:35:08;;;;;;;31.10;27.70;;;;;;;6.20;100.00;95338.50;4962395;28;20453;-74
2020/12/22 03:37:35;;;;;;;31.20;27.80;;;;;;;6.01;100.00;95347.59;4975950;28;20438;-74
2020/12/22 03:40:04;;;;;;;28.43;25.77;;;;;;;6.03;100.00;95347.44;4962632;28;20454;-73
2020/12/22 03:42:31;;;;;;;28.07;25.37;;;;;;;5.96;100.00;95347.94;4969051;28;20972;-74
2020/12/22 03:44:57;;;;;;;28.80;25.70;;;;;;;5.93;100.00;95347.38;4974739;28;20969;-73
2020/12/22 03:47:25;;;;;;;31.73;26.20;;;;;;;5.75;100.00;95332.53;4957941;28;20446;-74
2020/12/22 03:49:51;;;;;;;37.17;27.50;;;;;;;5.52;100.00;95336.88;4968233;28;20445;-74
2020/12/22 03:52:18;;;;;;;33.00;27.17;;;;;;;5.70;100.00;95334.63;4972343;28;20846;-74
2020/12/22 03:54:44;;;;;;;30.67;26.30;;;;;;;5.71;100.00;95331.97;4956219;29;20435;-74
2020/12/22 03:57:14;;;;;;;30.60;25.70;;;;;;;5.60;100.00;95314.91;4972208;28;20449;-74
2020/12/22 03:59:40;;;;;;;33.53;26.83;;;;;;;5.74;100.00;95328.34;4975432;28;20461;-74
2020/12/22 04:02:06;;;;;;;30.43;26.33;;;;;;;5.79;100.00;95328.81;4960105;28;20953;-74
2020/12/22 04:04:34;;;;;;;30.50;27.30;;;;;;;5.82;100.00;95326.00;4963508;28;20475;-74
2020/12/22 04:07:00;;;;;;;28.70;26.00;;;;;;;5.86;100.00;95320.66;4974617;28;20453;-74
2020/12/22 04:09:27;;;;;;;34.03;28.63;;;;;;;5.84;100.00;95329.28;4967611;28;20533;-73
2020/12/22 04:11:53;;;;;;;29.80;26.93;;;;;;;5.90;100.00;95333.09;4955878;29;20434;-75
2020/12/22 04:14:21;;;;;;;32.00;28.03;;;;;;;5.83;100.00;95317.41;4956413;28;20491;-73
2020/12/22 04:16:48;;;;;;;45.20;31.00;;;;;;;5.90;100.00;95334.81;4959789;28;20444;-74
2020/12/22 04:19:15;;;;;;;42.60;29.23;;;;;;;5.94;100.00;95334.47;4974918;28;20445;-73
2020/12/22 04:21:43;;;;;;;29.37;26.57;;;;;;;5.94;100.00;95329.34;4974676;28;20451;-73
2020/12/22 04:24:16;;;;;;;35.07;28.20;;;;;;;5.90;100.00;95335.66;4955902;29;20453;-74
2020/12/22 04:26:42;;;;;;;32.70;27.00;;;;;;;5.85;100.00;95330.06;4969396;28;20439;-75
2020/12/22 04:29:08;;;;;;;31.87;27.50;;;;;;;5.87;100.00;95350.44;4956300;28;20482;-75
2020/12/22 04:31:36;;;;;;;33.80;27.53;;;;;;;5.88;100.00;95340.06;4955079;29;20855;-75
2020/12/22 04:34:03;;;;;;;42.87;30.63;;;;;;;5.85;100.00;95350.53;4968160;28;20828;-74
2020/12/22 04:36:30;;;;;;;38.57;29.47;;;;;;;5.88;100.00;95344.34;4975278;28;20560;-73
2020/12/22 04:38:57;;;;;;;39.77;30.30;;;;;;;5.86;100.00;95354.72;4974502;28;20438;-73
2020/12/22 04:41:24;;;;;;;43.07;29.63;;;;;;;5.84;100.00;95347.19;4974221;28;20449;-73
2020/12/22 04:43:52;;;;;;;42.10;31.17;;;;;;;5.82;100.00;95341.34;4974253;28;20437;-73
2020/12/22 04:46:20;;;;;;;40.43;31.40;;;;;;;5.79;100.00;95333.13;4956936;28;20982;-76
2020/12/22 04:48:52;;;;;;;39.57;30.67;;;;;;;5.81;100.00;95344.03;4954980;28;20836;-74
2020/12/22 04:51:19;;;;;;;33.57;28.90;;;;;;;5.78;100.00;95352.75;4954599;29;20438;-74
2020/12/22 04:53:46;;;;;;;36.80;31.53;;;;;;;5.76;100.00;95358.94;4954481;29;20446;-73
2020/12/22 04:56:14;;;;;;;58.33;33.73;;;;;;;5.65;100.00;95352.06;4970108;28;20457;-74
2020/12/22 04:58:41;;;;;;;42.87;30.70;;;;;;;5.61;100.00;95359.97;4973683;28;20446;-74
2020/12/22 05:01:07;;;;;;;54.10;32.07;;;;;;;5.54;100.00;95366.47;4963089;28;20513;-75
2020/12/22 05:03:40;;;;;;;37.20;29.67;;;;;;;5.58;100.00;95355.09;4958458;28;20455;-76
2020/12/22 05:06:07;;;;;;;45.67;31.90;;;;;;;5.68;100.00;95352.66;4958649;28;20477;-73
2020/12/22 05:08:33;;;;;;;55.83;31.33;;;;;;;5.75;100.00;95358.09;4955186;29;20446;-73
2020/12/22 05:11:00;;;;;;;39.17;30.93;;;;;;;5.81;100.00;95349.97;4954768;28;20454;-76
2020/12/22 05:13:27;;;;;;;42.60;31.77;;;;;;;5.83;100.00;95360.88;4955228;29;20438;-73
2020/12/22 05:15:54;;;;;;;47.30;32.17;;;;;;;5.85;100.00;95358.19;4967914;28;20481;-74
2020/12/22 05:18:22;;;;;;;44.90;33.47;;;;;;;5.89;100.00;95357.00;4971414;28;20933;-74
2020/12/22 05:20:49;;;;;;;38.23;31.43;;;;;;;5.87;100.00;95355.53;4958764;28;20928;-74
2020/12/22 05:23:16;;;;;;;33.67;28.53;;;;;;;5.89;100.00;95349.34;4973544;28;20484;-74
2020/12/22 05:25:44;;;;;;;35.27;30.30;;;;;;;5.74;100.00;95338.56;4971617;28;20488;-74
2020/12/22 05:28:13;;;;;;;40.17;30.50;;;;;;;5.90;100.00;95352.72;4973693;28;20506;-74
2020/12/22 05:30:41;;;;;;;33.30;29.93;;;;;;;5.91;100.00;95357.75;4966238;28;20453;-75
2020/12/22 05:33:08;;;;;;;55.53;37.30;;;;;;;5.85;100.00;95355.63;4955744;28;20445;-76
2020/12/22 05:35:36;;;;;;;160.37;82.47;;;;;;;5.79;100.00;95356.13;4963302;28;20466;-74
2020/12/22 05:38:04;;;;;;;53.70;38.20;;;;;;;5.67;100.00;95343.34;4954168;29;20473;-77
2020/12/22 05:40:31;;;;;;;44.30;32.20;;;;;;;5.75;100.00;95339.41;4954342;29;20494;-76
2020/12/22 05:42:58;;;;;;;38.60;30.60;;;;;;;5.86;100.00;95362.38;4955671;28;20453;-74
2020/12/22 05:45:25;;;;;;;46.60;31.80;;;;;;;5.87;100.00;95355.53;4955027;28;20469;-75
2020/12/22 05:47:54;;;;;;;51.47;36.53;;;;;;;5.85;100.00;95350.53;4953991;28;20489;-75
2020/12/22 05:50:23;;;;;;;128.60;64.33;;;;;;;5.92;100.00;95355.97;4953743;29;20829;-74
2020/12/22 05:52:52;;;;;;;91.37;55.93;;;;;;;5.86;100.00;95359.00;4953644;29;21104;-75
2020/12/22 05:55:26;;;;;;;41.43;32.47;;;;;;;5.88;100.00;95359.69;4956871;28;20529;-75
2020/12/22 05:58:06;;;;;;;51.93;31.50;;;;;;;5.97;100.00;95359.00;4972885;28;20473;-74
2020/12/22 06:00:34;;;;;;;37.20;28.90;;;;;;;5.99;100.00;95356.31;4954252;28;20454;-74
2020/12/22 06:03:06;;;;;;;44.07;30.57;;;;;;;5.87;100.00;95330.75;4954084;29;20999;-75
2020/12/22 06:05:36;;;;;;;41.93;32.23;;;;;;;5.70;100.00;95321.84;4961620;28;20468;-73
2020/12/22 06:08:05;;;;;;;37.83;31.63;;;;;;;5.57;100.00;95322.00;4965639;28;20780;-73
2020/12/22 06:10:34;;;;;;;38.23;32.40;;;;;;;5.65;100.00;95304.31;4953678;29;20446;-74
2020/12/22 06:13:02;;;;;;;38.47;31.40;;;;;;;5.82;100.00;95336.22;4954131;29;20434;-73
2020/12/22 06:15:29;;;;;;;37.40;33.33;;;;;;;6.04;100.00;95351.66;4959084;28;20567;-74
2020/12/22 06:17:55;;;;;;;43.77;33.97;;;;;;;5.99;100.00;95352.00;4972444;28;20532;-72
2020/12/22 06:20:24;;;;;;;39.73;32.83;;;;;;;5.77;100.00;95315.34;4968925;28;20464;-72
2020/12/22 06:22:51;;;;;;;35.90;31.70;;;;;;;6.05;100.00;95346.41;4953185;29;21039;-72
2020/12/22 06:25:21;;;;;;;35.23;31.37;;;;;;;5.98;100.00;95329.91;4952818;29;21019;-74
2020/12/22 06:27:48;;;;;;;132.70;70.90;;;;;;;6.00;100.00;95348.53;4958756;28;20492;-71
2020/12/22 06:30:17;;;;;;;94.77;60.33;;;;;;;6.12;100.00;95338.28;4963529;28;20442;-73
2020/12/22 06:32:44;;;;;;;71.03;46.77;;;;;;;6.03;100.00;95329.56;4953156;29;20507;-73
2020/12/22 06:35:30;;;;;;;35.67;29.53;;;;;;;6.15;100.00;95340.59;4953179;29;20450;-74
2020/12/22 06:37:58;;;;;;;33.80;27.93;;;;;;;6.10;100.00;95327.34;4952700;29;20465;-75
2020/12/22 06:40:52;;;;;;;32.10;27.50;;;;;;;6.04;100.00;95346.53;4958603;28;20511;-74
2020/12/22 06:43:38;;;;;;;30.53;27.23;;;;;;;6.02;100.00;95343.28;4971436;28;20802;-75
2020/12/22 06:46:06;;;;;;;27.50;24.70;;;;;;;5.93;100.00;95332.84;4959142;28;20474;-75
2020/12/22 06:48:46;;;;;;;32.70;29.03;;;;;;;6.14;100.00;95346.63;4954661;28;20455;-75
2020/12/22 06:51:32;;;;;;;34.50;27.77;;;;;;;6.12;100.00;95346.75;4951907;29;20435;-75
2020/12/22 06:53:59;;;;;;;34.60;27.90;;;;;;;6.16;100.00;95355.03;4951803;29;20553;-75
2020/12/22 06:56:39;;;;;;;33.50;28.23;;;;;;;6.05;100.00;95350.69;4966391;28;20507;-75
2020/12/22 06:59:06;;;;;;;30.40;27.33;;;;;;;6.11;100.00;95344.34;4963561;28;20445;-75
2020/12/22 07:01:35;;;;;;;37.37;28.50;;;;;;;6.18;100.00;95346.28;4972224;28;20453;-75
2020/12/22 07:04:18;;;;;;;31.03;28.10;;;;;;;6.02;100.00;95349.22;4972112;28;20976;-75
2020/12/22 07:06:58;;;;;;;32.07;28.10;;;;;;;6.03;100.00;95332.94;4971121;28;20474;-74
2020/12/22 07:09:26;;;;;;;34.40;28.97;;;;;;;6.13;100.00;95342.47;4963562;28;20537;-75
2020/12/22 07:11:54;;;;;;;33.30;29.63;;;;;;;6.20;100.00;95337.69;4952500;29;20446;-74
2020/12/22 07:14:23;;;;;;;34.27;28.83;;;;;;;6.26;100.00;95332.88;4953354;28;20556;-76
2020/12/22 07:16:55;;;;;;;39.97;32.53;;;;;;;6.32;100.00;95330.78;4953047;29;20446;-75
2020/12/22 07:19:28;;;;;;;59.70;36.73;;;;;;;6.19;100.00;95321.50;4952724;28;20987;-75
2020/12/22 07:21:57;;;;;;;39.93;32.60;;;;;;;6.22;100.00;95335.81;4972541;28;20507;-75
2020/12/22 07:24:25;;;;;;;40.70;30.67;;;;;;;6.30;100.00;95336.81;4973711;28;20433;-75
2020/12/22 07:26:51;;;;;;;42.30;31.70;;;;;;;6.29;100.00;95330.06;4959001;28;20674;-76
2020/12/22 07:29:18;;;;;;;41.77;30.90;;;;;;;6.34;100.00;95339.16;4967991;28;20446;-75
2020/12/22 07:31:45;;;;;;;37.90;29.63;;;;;;;6.24;100.00;95319.41;4963382;28;20957;-73
2020/12/22 07:34:12;;;;;;;45.03;30.73;;;;;;;6.32;100.00;95328.22;4957080;28;20450;-75
2020/12/22 07:36:39;;;;;;;44.07;31.77;;;;;;;6.35;100.00;95340.75;4956339;29;20441;-74
2020/12/22 07:39:21;;;;;;;37.10;29.13;;;;;;;6.49;100.00;95343.03;4956159;29;20442;-74
2020/12/22 07:41:49;;;;;;;38.50;29.83;;;;;;;6.49;100.00;95344.78;4956119;29;20513;-74
2020/12/22 07:44:17;;;;;;;48.37;33.37;;;;;;;6.48;100.00;95336.28;4970244;28;20452;-74
2020/12/22 07:46:45;;;;;;;38.20;31.17;;;;;;;6.58;100.00;95338.91;4974906;28;21020;-76
2020/12/22 07:49:13;;;;;;;37.40;31.13;;;;;;;6.49;100.00;95325.13;4969713;28;20445;-74
2020/12/22 07:51:42;;;;;;;42.90;30.60;;;;;;;6.63;100.00;95338.53;4962107;28;20453;-73
2020/12/22 07:54:09;;;;;;;48.10;32.47;;;;;;;6.53;100.00;95331.59;4974793;28;20815;-74
2020/12/22 07:56:38;;;;;;;42.73;31.70;;;;;;;6.41;100.00;95342.81;4958279;28;20536;-75
2020/12/22 07:59:07;;;;;;;38.40;31.90;;;;;;;6.35;100.00;95340.75;4955442;29;20956;-74
2020/12/22 08:01:39;;;;;;;44.47;32.80;;;;;;;6.33;100.00;95357.97;4961115;28;20507;-75
2020/12/22 08:04:12;;;;;;;39.07;31.93;;;;;;;6.45;100.00;95351.88;4975321;28;20451;-75
2020/12/22 08:06:39;;;;;;;45.37;31.90;;;;;;;6.57;100.00;95351.81;4975086;28;20491;-76
2020/12/22 08:09:05;;;;;;;44.80;32.07;;;;;;;6.32;100.00;95343.56;4974502;28;20456;-74
2020/12/22 08:11:33;;;;;;;54.33;34.67;;;;;;;6.28;100.00;95348.94;4974284;28;20975;-74
2020/12/22 08:14:03;;;;;;;54.90;38.70;;;;;;;6.16;100.00;95337.13;4975200;28;20972;-74
2020/12/22 08:16:34;;;;;;;48.73;37.10;;;;;;;6.06;100.00;95330.16;4974300;28;20517;-72
2020/12/22 08:19:05;;;;;;;66.17;40.23;;;;;;;6.01;100.00;95332.25;4974319;28;20499;-72
2020/12/22 08:21:34;;;;;;;50.30;37.30;;;;;;;5.96;100.00;95319.00;4974721;28;20438;-74
2020/12/22 08:24:02;;;;;;;58.50;37.63;;;;;;;6.14;100.00;95316.75;4974626;28;20500;-73
2020/12/22 08:26:29;;;;;;;55.57;38.40;;;;;;;6.22;100.00;95315.34;4974100;28;20465;-74
2020/12/22 08:28:56;;;;;;;63.47;42.80;;;;;;;6.25;100.00;95307.44;4974261;28;20956;-74
2020/12/22 08:31:26;;;;;;;63.87;41.27;;;;;;;6.40;100.00;95303.66;4974218;28;20485;-73
2020/12/22 08:33:58;;;;;;;70.13;45.87;;;;;;;6.23;100.00;95302.44;4973937;28;20453;-73
2020/12/22 08:36:28;;;;;;;57.00;44.47;;;;;;;6.34;100.00;95293.88;4973887;28;20434;-74
2020/12/22 08:39:15;;;;;;;99.20;60.13;;;;;;;6.32;100.00;95300.88;4974153;28;20913;-74
2020/12/22 08:41:43;;;;;;;77.87;48.33;;;;;;;5.90;100.00;95296.47;4974100;28;20499;-75
2020/12/22 08:44:10;;;;;;;71.10;48.13;;;;;;;5.90;100.00;95291.38;4973776;28;20446;-75
2020/12/22 08:46:39;;;;;;;62.40;38.73;;;;;;;5.86;100.00;95289.97;4973699;28;20461;-74
2020/12/22 08:49:13;;;;;;;58.77;37.67;;;;;;;6.00;100.00;95294.84;4973574;28;20442;-74
2020/12/22 08:51:40;;;;;;;53.23;37.27;;;;;;;6.23;100.00;95294.75;4973512;28;20434;-74
2020/12/22 08:54:06;;;;;;;58.90;40.13;;;;;;;6.36;100.00;95296.34;4973620;28;20437;-75
2020/12/22 08:56:33;;;;;;;60.57;39.37;;;;;;;6.44;100.00;95309.31;4973344;28;20441;-74
2020/12/22 08:59:02;;;;;;;74.77;40.57;;;;;;;6.28;100.00;95317.41;4973445;28;20528;-74
2020/12/22 09:01:29;;;;;;;54.10;38.93;;;;;;;6.42;100.00;95308.63;4973044;28;20433;-77
2020/12/22 09:04:00;;;;;;;57.43;37.27;;;;;;;6.40;100.00;95306.19;4973171;28;20437;-77
2020/12/22 09:06:34;;;;;;;57.57;39.77;;;;;;;6.03;100.00;95263.06;4973268;28;20551;-77
2020/12/22 09:09:02;;;;;;;55.70;35.53;;;;;;;6.45;100.00;95298.13;4973598;28;20448;-75
2020/12/22 09:11:29;;;;;;;46.90;35.70;;;;;;;6.50;100.00;95284.97;4973836;28;20587;-76
2020/12/22 09:14:04;;;;;;;53.60;35.70;;;;;;;6.25;100.00;95295.44;4972856;28;20494;-75
2020/12/22 09:17:01;;;;;;;53.27;34.50;;;;;;;6.25;100.00;95294.66;4972731;28;20534;-75
2020/12/22 09:19:41;;;;;;;57.97;34.80;;;;;;;6.18;100.00;95291.78;4913601;29;20448;-74
2020/12/22 09:22:08;;;;;;;53.23;34.97;;;;;;;6.23;100.00;95281.19;4964938;28;20455;-75
2020/12/22 09:24:35;;;;;;;47.67;33.67;;;;;;;6.38;100.00;95269.69;4973141;28;20458;-75
2020/12/22 09:27:03;;;;;;;45.57;33.37;;;;;;;6.41;100.00;95276.28;4973303;28;20473;-75
2020/12/22 09:29:30;;;;;;;46.67;31.40;;;;;;;6.30;100.00;95277.16;4972939;28;20449;-76
2020/12/22 09:31:58;;;;;;;44.20;31.53;;;;;;;6.28;100.00;95256.84;4973193;28;20818;-77
2020/12/22 09:34:26;;;;;;;45.33;31.80;;;;;;;6.52;100.00;95270.28;4972842;28;20445;-75
2020/12/22 09:36:55;;;;;;;59.03;35.97;;;;;;;6.27;100.00;95267.19;4973648;28;20451;-76
2020/12/22 09:39:22;;;;;;;47.43;32.70;;;;;;;5.82;100.00;95274.09;4972783;28;20448;-76
2020/12/22 09:41:48;;;;;;;49.77;33.60;;;;;;;6.03;100.00;95265.63;4972547;28;20445;-76
2020/12/22 09:44:15;;;;;;;42.67;32.43;;;;;;;5.79;100.00;95259.81;4971921;28;20445;-74
2020/12/22 09:46:42;;;;;;;42.80;33.43;;;;;;;6.02;100.00;95259.72;4972549;28;20535;-73
2020/12/22 09:49:08;;;;;;;47.67;34.77;;;;;;;6.19;100.00;95247.34;4973195;28;20498;-73
2020/12/22 09:51:35;;;;;;;52.13;34.57;;;;;;;6.35;100.00;95253.78;4972528;28;20481;-75
2020/12/22 09:54:02;;;;;;;41.43;33.80;;;;;;;6.37;100.00;95257.00;4972532;28;20813;-72
2020/12/22 09:56:31;;;;;;;49.27;35.30;;;;;;;6.56;100.00;95255.53;4972473;28;20441;-72
2020/12/22 09:58:58;;;;;;;55.97;36.77;;;;;;;6.51;100.00;95245.66;4972434;28;20488;-73
2020/12/22 10:01:25;;;;;;;43.70;33.00;;;;;;;6.55;100.00;95252.13;4972639;28;20433;-73
2020/12/22 10:03:52;;;;;;;53.10;35.83;;;;;;;6.58;100.00;95266.44;4972395;28;20445;-73
2020/12/22 10:06:20;;;;;;;52.50;36.77;;;;;;;6.50;100.00;95256.81;4972409;28;20992;-74
2020/12/22 10:08:47;;;;;;;55.20;37.10;;;;;;;6.29;100.00;95260.22;4972351;28;20871;-74
2020/12/22 10:11:16;;;;;;;72.67;38.70;;;;;;;6.21;100.00;95239.53;4972570;28;20449;-73
2020/12/22 10:13:49;;;;;;;53.77;36.80;;;;;;;6.35;100.00;95223.06;4972529;28;20444;-74
2020/12/22 10:16:18;;;;;;;56.27;39.40;;;;;;;6.37;100.00;95246.78;4972813;28;20481;-74
2020/12/22 10:18:45;;;;;;;67.77;42.50;;;;;;;6.38;100.00;95244.13;4972079;28;20453;-74
2020/12/22 10:21:13;;;;;;;71.67;40.40;;;;;;;6.71;100.00;95250.88;4972544;28;20856;-76
2020/12/22 10:23:40;;;;;;;57.13;39.00;;;;;;;6.79;100.00;95237.44;4972032;28;20833;-74
2020/12/22 10:26:09;;;;;;;76.93;41.30;;;;;;;6.73;100.00;95231.88;4972529;28;20469;-77
2020/12/22 10:28:39;;;;;;;73.43;44.53;;;;;;;6.83;100.00;95247.28;4972662;28;20437;-73
2020/12/22 10:31:06;;;;;;;70.60;42.50;;;;;;;6.71;100.00;95250.88;4972051;28;20925;-75
2020/12/22 10:33:32;;;;;;;66.83;44.37;;;;;;;6.88;100.00;95264.81;4971924;28;20480;-75
2020/12/22 10:35:59;;;;;;;70.73;44.10;;;;;;;6.91;100.00;95249.22;4973251;28;20429;-75
2020/12/22 10:38:25;;;;;;;81.80;44.90;;;;;;;6.96;100.00;95259.91;4972287;28;20449;-74
2020/12/22 10:40:52;;;;;;;65.33;46.53;;;;;;;6.90;100.00;95270.63;4971996;28;20446;-76
2020/12/22 10:43:18;;;;;;;76.93;49.40;;;;;;;6.43;100.00;95276.19;4972354;28;20441;-75
2020/12/22 10:45:45;;;;;;;96.23;50.50;;;;;;;6.75;100.00;95260.72;4971903;28;20808;-75
2020/12/22 10:48:12;;;;;;;82.67;49.07;;;;;;;6.91;100.00;95258.63;4972100;28;20585;-75
2020/12/22 10:50:39;;;;;;;75.03;45.37;;;;;;;6.89;100.00;95271.59;4972073;28;20434;-76
2020/12/22 10:53:06;;;;;;;70.03;44.90;;;;;;;6.91;100.00;95267.13;4972304;28;20476;-75
2020/12/22 10:55:33;;;;;;;69.60;41.20;;;;;;;6.94;100.00;95261.78;4974986;28;20449;-76
2020/12/22 10:57:59;;;;;;;61.40;41.07;;;;;;;6.98;100.00;95245.22;4975843;28;20453;-75
2020/12/22 11:00:32;;;;;;;66.70;39.57;;;;;;;6.78;100.00;95263.97;4975605;28;20921;-76
2020/12/22 11:03:03;;;;;;;64.10;36.87;;;;;;;6.93;100.00;95262.69;4975145;28;20860;-76
2020/12/22 11:06:11;;;;;;;54.57;39.80;;;;;;;7.05;100.00;95253.19;4975509;28;20465;-76
2020/12/22 11:08:39;;;;;;;59.07;37.30;;;;;;;7.01;100.00;95251.81;4975385;28;20447;-77
2020/12/22 11:11:07;;;;;;;55.17;35.43;;;;;;;6.94;100.00;95243.84;4975299;28;20437;-75
2020/12/22 11:13:34;;;;;;;59.90;36.90;;;;;;;6.90;100.00;95227.09;4975068;28;20528;-76
2020/12/22 11:16:00;;;;;;;61.10;38.93;;;;;;;7.09;100.00;95241.75;4975670;28;20503;-74
2020/12/22 11:18:36;;;;;;;68.20;39.80;;;;;;;7.11;100.00;95228.78;4976317;28;20448;-74
2020/12/22 11:21:08;;;;;;;63.47;43.47;;;;;;;7.01;100.00;95186.97;4975173;28;20928;-75
2020/12/22 11:23:34;;;;;;;66.07;41.80;;;;;;;7.39;100.00;95228.19;4975242;28;20410;-76